Time;durP1;ratioP1;P1;durP2;ratioP2;P2;SDS_P1;SDS_P2;PMS_P1;PMS_P2;Temp;Humidity;BMP_temperature;BMP_pressure;BME280_temperature;BME280_humidity;BME280_pressure;Samples;Min_cycle;Max_cycle;Signal;HPM_P1;HPM_P2
2022/08/23 00:01:21;;;;;;;4.22;2.50;;;18.80;99.90;;;;;;4971365;28;20037;-59
2022/08/23 00:03:48;;;;;;;3.80;2.35;;;18.80;99.90;;;;;;4970235;28;20054;-58
2022/08/23 00:06:14;;;;;;;5.20;2.33;;;18.70;99.90;;;;;;4969879;28;20038;-58
2022/08/23 00:08:40;;;;;;;5.30;2.40;;;18.70;99.90;;;;;;4970725;28;20062;-58
2022/08/23 00:11:28;;;;;;;2.22;1.95;;;18.80;99.90;;;;;;4968477;28;20124;-58
2022/08/23 00:13:55;;;;;;;3.72;1.95;;;18.70;99.90;;;;;;4969663;28;20026;-59
2022/08/23 00:16:20;;;;;;;5.03;2.53;;;18.70;99.90;;;;;;4970243;28;20035;-58
2022/08/23 00:18:47;;;;;;;6.25;3.20;;;18.80;99.90;;;;;;4971254;28;20034;-57
2022/08/23 00:21:12;;;;;;;5.05;2.38;;;18.80;99.90;;;;;;4966756;28;20055;-58
2022/08/23 00:23:38;;;;;;;6.07;3.08;;;18.80;99.90;;;;;;4971154;28;20117;-58
2022/08/23 00:26:04;;;;;;;5.32;2.60;;;18.80;99.90;;;;;;4968911;28;20133;-58
2022/08/23 00:28:30;;;;;;;4.68;2.10;;;18.80;99.90;;;;;;4968802;28;20041;-58
2022/08/23 00:30:57;;;;;;;5.03;2.55;;;18.80;99.90;;;;;;4969349;28;20035;-57
2022/08/23 00:33:23;;;;;;;6.65;2.75;;;18.80;99.90;;;;;;4970544;28;20402;-58
2022/08/23 00:35:49;;;;;;;6.22;2.78;;;18.80;99.90;;;;;;4969340;28;20085;-58
2022/08/23 00:38:14;;;;;;;8.50;2.63;;;18.90;99.90;;;;;;4969836;28;20026;-59
2022/08/23 00:40:43;;;;;;;6.72;2.47;;;18.80;99.90;;;;;;4970816;28;20031;-59
2022/08/23 00:48:49;;;;;;;9.77;2.75;;;18.90;99.90;;;;;;4968126;28;20045;-59
2022/08/23 00:51:29;;;;;;;6.80;2.00;;;18.90;99.90;;;;;;4970685;28;20113;-59
2022/08/23 00:54:00;;;;;;;4.15;2.47;;;19.00;99.90;;;;;;4968896;28;20081;-59
2022/08/23 00:56:29;;;;;;;9.55;2.70;;;19.00;99.90;;;;;;4970552;28;20034;-59
2022/08/23 00:58:55;;;;;;;6.90;2.50;;;19.00;99.90;;;;;;4968919;28;20037;-58
2022/08/23 01:01:20;;;;;;;5.93;2.22;;;19.00;99.90;;;;;;4969843;28;20039;-59
2022/08/23 01:03:51;;;;;;;8.98;2.33;;;19.00;99.90;;;;;;4970453;28;20048;-59
2022/08/23 01:06:31;;;;;;;8.60;2.88;;;19.00;99.90;;;;;;4971933;28;20031;-58
2022/08/23 01:09:03;;;;;;;8.57;2.47;;;19.00;99.90;;;;;;4965685;28;20045;-58
2022/08/23 01:11:32;;;;;;;6.28;2.47;;;19.00;99.90;;;;;;4973984;28;20019;-58
2022/08/23 01:14:07;;;;;;;6.35;2.38;;;19.00;99.90;;;;;;4971482;28;20066;-58
2022/08/23 01:16:36;;;;;;;9.32;2.88;;;19.00;99.90;;;;;;4973687;28;20011;-58
2022/08/23 01:19:06;;;;;;;12.57;3.10;;;19.00;99.90;;;;;;4972855;28;20027;-58
2022/08/23 01:21:42;;;;;;;8.68;3.33;;;19.00;99.90;;;;;;4974092;28;20026;-58
2022/08/23 01:24:09;;;;;;;8.48;2.45;;;19.00;99.90;;;;;;4964372;28;20035;-58
2022/08/23 01:26:35;;;;;;;7.63;3.38;;;19.00;99.90;;;;;;4972753;28;20018;-57
2022/08/23 01:29:05;;;;;;;10.38;2.90;;;19.00;99.90;;;;;;4972238;28;20506;-58
2022/08/23 01:31:32;;;;;;;8.25;2.80;;;19.00;99.90;;;;;;4973581;28;20022;-58
2022/08/23 01:34:05;;;;;;;9.68;3.10;;;19.00;99.90;;;;;;4972033;28;20106;-58
2022/08/23 01:36:31;;;;;;;8.10;2.95;;;19.00;99.90;;;;;;4973014;28;20035;-58
2022/08/23 01:38:57;;;;;;;6.90;3.13;;;19.00;99.90;;;;;;4972036;28;20031;-59
2022/08/23 01:41:23;;;;;;;6.13;2.65;;;19.00;99.90;;;;;;4973692;28;20026;-58
2022/08/23 01:43:49;;;;;;;11.23;2.80;;;19.00;99.90;;;;;;4971773;28;20038;-59
2022/08/23 01:46:19;;;;;;;9.77;2.70;;;19.00;99.90;;;;;;4972890;28;20023;-59
2022/08/23 01:48:47;;;;;;;8.48;2.78;;;19.00;99.90;;;;;;4971951;28;20038;-59
2022/08/23 01:51:15;;;;;;;10.23;2.58;;;18.90;99.90;;;;;;4973557;28;20483;-57
2022/08/23 01:53:41;;;;;;;7.80;2.35;;;18.90;99.90;;;;;;4973231;28;20026;-57
2022/08/23 01:56:08;;;;;;;5.85;1.88;;;18.90;99.90;;;;;;4970500;28;20031;-57
2022/08/23 01:58:35;;;;;;;9.40;2.55;;;18.90;99.90;;;;;;4972733;28;20038;-57
2022/08/23 02:01:03;;;;;;;8.68;2.22;;;18.90;99.90;;;;;;4971917;28;20487;-58
2022/08/23 02:03:29;;;;;;;5.72;1.85;;;18.90;99.90;;;;;;4973602;28;20045;-58
2022/08/23 02:05:56;;;;;;;5.10;1.98;;;18.90;99.90;;;;;;4965103;28;20039;-58
2022/08/23 02:11:08;;;;;;;3.28;1.48;;;19.00;99.90;;;;;;4971199;28;20041;-59
2022/08/23 02:13:34;;;;;;;6.70;1.80;;;19.00;99.90;;;;;;4973106;28;20030;-59
2022/08/23 02:16:00;;;;;;;4.55;1.90;;;18.90;99.90;;;;;;4971487;28;20131;-59
2022/08/23 02:18:26;;;;;;;8.48;2.60;;;18.90;99.90;;;;;;4972365;28;20022;-59
2022/08/23 02:20:52;;;;;;;7.40;1.73;;;18.90;99.90;;;;;;4971188;28;20030;-58
2022/08/23 02:23:19;;;;;;;6.13;1.90;;;18.90;99.90;;;;;;4972037;28;20478;-58
2022/08/23 02:25:45;;;;;;;12.18;2.33;;;18.90;99.90;;;;;;4973297;28;20047;-58
2022/08/23 02:28:11;;;;;;;5.53;1.88;;;18.90;99.90;;;;;;4969868;28;20038;-58
2022/08/23 02:30:38;;;;;;;6.85;1.65;;;18.90;99.90;;;;;;4972554;28;20014;-58
2022/08/23 02:33:04;;;;;;;8.60;1.67;;;18.90;99.90;;;;;;4969890;28;20063;-58
2022/08/23 02:35:32;;;;;;;8.88;1.52;;;18.90;99.90;;;;;;4972904;28;20026;-58
2022/08/23 02:38:01;;;;;;;10.02;1.50;;;18.80;99.90;;;;;;4971217;28;20122;-58
2022/08/23 02:40:27;;;;;;;7.25;1.70;;;18.80;99.90;;;;;;4972787;28;20027;-58
2022/08/23 02:42:52;;;;;;;7.60;1.70;;;18.80;99.90;;;;;;4969444;28;20569;-58
2022/08/23 02:45:18;;;;;;;6.97;1.83;;;18.70;99.90;;;;;;4971867;28;20030;-57
2022/08/23 02:47:45;;;;;;;4.90;1.60;;;18.80;99.90;;;;;;4972821;28;20486;-58
2022/08/23 02:50:11;;;;;;;7.13;1.88;;;18.80;99.90;;;;;;4970638;28;20142;-58
2022/08/23 02:52:37;;;;;;;8.82;2.05;;;18.80;99.90;;;;;;4972405;28;20050;-58
2022/08/23 02:55:04;;;;;;;8.20;1.77;;;18.80;99.90;;;;;;4970797;28;20027;-58
2022/08/23 02:57:29;;;;;;;3.25;1.52;;;18.80;99.90;;;;;;4969915;28;20023;-58
2022/08/23 02:59:56;;;;;;;7.28;1.80;;;18.80;99.90;;;;;;4970831;28;20045;-58
2022/08/23 03:02:22;;;;;;;6.30;1.50;;;18.80;99.90;;;;;;4971460;28;20038;-58
2022/08/23 03:04:48;;;;;;;6.10;1.73;;;18.80;99.90;;;;;;4963979;28;20038;-58
2022/08/23 03:07:14;;;;;;;9.00;1.90;;;18.80;99.90;;;;;;4965096;28;20030;-57
2022/08/23 03:09:40;;;;;;;6.07;1.60;;;18.80;99.90;;;;;;4971779;28;20034;-58
2022/08/23 03:12:06;;;;;;;7.90;1.60;;;18.90;99.90;;;;;;4969264;28;20086;-59
2022/08/23 03:14:31;;;;;;;7.95;1.95;;;18.90;99.90;;;;;;4970350;28;20491;-58
2022/08/23 03:16:57;;;;;;;6.03;1.73;;;18.90;99.90;;;;;;4970412;28;20031;-58
2022/08/23 03:19:23;;;;;;;6.18;1.30;;;18.80;99.90;;;;;;4971685;28;20442;-58
2022/08/23 03:21:48;;;;;;;5.57;1.77;;;18.80;99.90;;;;;;4969269;28;20027;-58
2022/08/23 03:24:14;;;;;;;8.05;1.63;;;18.80;99.90;;;;;;4971858;28;20027;-58
2022/08/23 03:26:42;;;;;;;8.02;1.45;;;18.80;99.90;;;;;;4971446;28;20030;-57
2022/08/23 03:29:08;;;;;;;6.07;1.70;;;18.80;99.90;;;;;;4969559;28;20030;-58
2022/08/23 03:31:34;;;;;;;6.65;1.60;;;18.80;99.90;;;;;;4970024;28;20037;-58
2022/08/23 03:34:00;;;;;;;3.85;1.45;;;18.80;99.90;;;;;;4969647;28;20054;-58
2022/08/23 03:36:26;;;;;;;3.10;1.50;;;18.80;99.90;;;;;;4971872;28;20493;-58
2022/08/23 03:38:52;;;;;;;3.85;1.20;;;18.80;99.90;;;;;;4970177;28;20109;-58
2022/08/23 03:41:17;;;;;;;5.95;1.50;;;18.80;99.90;;;;;;4970331;28;20126;-59
2022/08/23 03:43:43;;;;;;;4.10;1.38;;;18.80;99.90;;;;;;4971130;28;20085;-58
2022/08/23 03:46:09;;;;;;;6.03;1.55;;;18.80;99.90;;;;;;4969980;28;20033;-58
2022/08/23 03:48:36;;;;;;;6.55;1.27;;;18.80;99.90;;;;;;4968043;28;20498;-59
2022/08/23 03:51:02;;;;;;;4.05;1.30;;;18.80;99.90;;;;;;4968580;28;20030;-59
2022/08/23 03:53:28;;;;;;;5.50;1.50;;;18.80;99.90;;;;;;4971440;28;20030;-58
2022/08/23 03:55:55;;;;;;;6.22;1.60;;;18.80;99.90;;;;;;4968993;28;20033;-59
2022/08/23 03:58:21;;;;;;;6.90;1.40;;;18.80;99.90;;;;;;4971157;28;20038;-59
2022/08/23 04:00:47;;;;;;;6.60;1.25;;;18.80;99.90;;;;;;4970272;28;20018;-58
2022/08/23 04:03:12;;;;;;;6.95;1.80;;;18.80;99.90;;;;;;4969659;28;20093;-59
2022/08/23 04:05:38;;;;;;;5.40;1.30;;;18.80;99.90;;;;;;4971193;28;20050;-59
2022/08/23 04:08:09;;;;;;;4.32;1.50;;;18.80;99.90;;;;;;4969482;28;20518;-58
2022/08/23 04:10:36;;;;;;;4.80;1.52;;;18.80;99.90;;;;;;4967805;28;20482;-58
2022/08/23 04:13:01;;;;;;;9.25;1.90;;;18.80;99.90;;;;;;4968256;28;20057;-59
2022/08/23 04:15:27;;;;;;;7.65;1.35;;;18.80;99.90;;;;;;4971317;28;20382;-59
2022/08/23 04:17:53;;;;;;;4.35;1.20;;;18.70;99.90;;;;;;4984041;28;20469;-59
2022/08/23 04:20:18;;;;;;;2.70;1.20;;;18.80;99.90;;;;;;4969116;28;20031;-59
2022/08/23 04:22:44;;;;;;;5.78;1.40;;;18.80;99.90;;;;;;4970201;28;20510;-59
2022/08/23 04:25:10;;;;;;;8.40;1.35;;;18.70;99.90;;;;;;4969304;28;20395;-59
2022/08/23 04:27:35;;;;;;;6.80;1.42;;;18.70;99.90;;;;;;4970463;28;20058;-57
2022/08/23 04:30:01;;;;;;;2.47;1.08;;;18.70;99.90;;;;;;4969178;28;20039;-58
2022/08/23 04:32:28;;;;;;;5.90;1.65;;;18.70;99.90;;;;;;4970416;28;20482;-58
2022/08/23 04:34:53;;;;;;;8.32;1.40;;;18.70;99.90;;;;;;4967547;28;20084;-59
2022/08/23 04:37:19;;;;;;;4.88;1.00;;;18.60;99.90;;;;;;4970432;28;20035;-59
2022/08/23 04:42:28;;;;;;;5.43;1.67;;;18.60;99.90;;;;;;4973133;28;20100;-59
2022/08/23 04:44:54;;;;;;;7.30;1.15;;;18.60;99.90;;;;;;4971711;28;20502;-57
2022/08/23 04:47:20;;;;;;;4.45;1.30;;;18.50;99.90;;;;;;4977185;28;20038;-58
2022/08/23 04:49:45;;;;;;;2.17;1.10;;;18.50;99.90;;;;;;4977346;28;20027;-58
2022/08/23 04:52:12;;;;;;;7.65;1.20;;;18.50;99.90;;;;;;4975461;28;20066;-57
2022/08/23 04:54:38;;;;;;;3.95;1.00;;;18.50;99.90;;;;;;4975548;28;20113;-59
2022/08/23 04:57:03;;;;;;;4.78;1.05;;;18.50;99.90;;;;;;4974992;28;20050;-59
2022/08/23 04:59:29;;;;;;;5.85;1.00;;;18.50;99.90;;;;;;4977206;28;20475;-59
2022/08/23 05:01:54;;;;;;;4.85;1.13;;;18.50;99.90;;;;;;4975119;28;20038;-57
2022/08/23 05:04:20;;;;;;;4.38;1.20;;;18.50;99.90;;;;;;4976147;28;20031;-58
2022/08/23 05:06:46;;;;;;;3.97;0.90;;;18.50;99.90;;;;;;4976955;28;20031;-58
2022/08/23 05:09:12;;;;;;;5.00;1.00;;;18.50;99.90;;;;;;4975016;28;20169;-58
2022/08/23 05:11:38;;;;;;;5.57;1.17;;;18.50;99.90;;;;;;4977283;28;20022;-58
2022/08/23 05:14:04;;;;;;;1.83;0.85;;;18.50;99.90;;;;;;4974193;28;20042;-58
2022/08/23 05:16:30;;;;;;;4.00;1.40;;;18.50;99.90;;;;;;4977503;28;20390;-58
2022/08/23 05:18:55;;;;;;;3.10;1.05;;;18.50;99.90;;;;;;4975044;28;20027;-59
2022/08/23 05:21:23;;;;;;;6.07;1.58;;;18.50;99.90;;;;;;4976650;28;20039;-58
2022/08/23 05:23:49;;;;;;;1.45;0.90;;;18.40;99.90;;;;;;4974221;28;20518;-58
2022/08/23 05:26:15;;;;;;;5.85;1.10;;;18.50;99.90;;;;;;4976074;28;20026;-58
2022/08/23 05:28:43;;;;;;;2.65;1.10;;;18.50;99.90;;;;;;4976565;28;20490;-58
2022/08/23 05:31:15;;;;;;;5.30;1.45;;;18.40;99.90;;;;;;4974944;28;20042;-59
2022/08/23 05:33:42;;;;;;;5.50;1.50;;;18.40;99.90;;;;;;4976825;28;20043;-58
2022/08/23 05:36:10;;;;;;;6.13;2.22;;;18.50;99.90;;;;;;4975096;28;20500;-58
2022/08/23 05:38:37;;;;;;;3.13;1.10;;;18.50;99.90;;;;;;4975171;28;20034;-58
2022/08/23 05:41:03;;;;;;;4.88;1.40;;;18.50;99.90;;;;;;4974413;28;20487;-58
2022/08/23 05:43:30;;;;;;;9.38;1.85;;;18.60;99.90;;;;;;4976640;28;20022;-57
2022/08/23 05:46:04;;;;;;;4.25;1.10;;;18.60;99.90;;;;;;4974276;28;20109;-58
2022/08/23 05:48:32;;;;;;;4.72;1.30;;;18.70;99.90;;;;;;4976235;28;20058;-58
2022/08/23 05:51:11;;;;;;;3.22;1.23;;;18.70;99.90;;;;;;4974179;28;20364;-58
2022/08/23 05:53:38;;;;;;;6.10;1.70;;;18.70;99.90;;;;;;4972261;28;20023;-59
2022/08/23 05:56:18;;;;;;;3.53;1.10;;;18.80;99.90;;;;;;4970351;28;20026;-59
2022/08/23 05:58:45;;;;;;;3.35;1.50;;;18.80;99.90;;;;;;4973158;28;20022;-59
2022/08/23 06:01:13;;;;;;;5.82;1.25;;;18.90;99.90;;;;;;4971681;28;20027;-58
2022/08/23 06:03:39;;;;;;;3.03;1.17;;;19.00;99.90;;;;;;4972482;28;20060;-58
2022/08/23 06:06:05;;;;;;;3.10;1.33;;;19.00;99.90;;;;;;4971147;28;20062;-58
2022/08/23 06:08:33;;;;;;;4.18;0.88;;;19.00;99.90;;;;;;4973506;28;20034;-59
2022/08/23 06:11:05;;;;;;;2.78;1.33;;;19.00;99.90;;;;;;4970846;28;20074;-59
2022/08/23 06:13:30;;;;;;;8.18;1.02;;;19.10;99.90;;;;;;4972075;28;20038;-57
2022/08/23 06:15:57;;;;;;;3.90;2.35;;;19.00;99.90;;;;;;4971282;28;20058;-58
2022/08/23 06:18:24;;;;;;;2.85;1.23;;;19.10;99.90;;;;;;4971545;28;20027;-58
2022/08/23 06:21:09;;;;;;;3.03;1.20;;;19.20;99.90;;;;;;4971263;28;20023;-59
2022/08/23 06:23:36;;;;;;;2.95;1.60;;;19.20;99.90;;;;;;4971743;28;20027;-59
2022/08/23 06:26:13;;;;;;;5.85;1.40;;;19.20;99.90;;;;;;4968569;28;20534;-59
2022/08/23 06:28:40;;;;;;;2.05;0.90;;;19.40;99.90;;;;;;4978059;28;20030;-59
2022/08/23 06:31:06;;;;;;;5.78;1.52;;;19.50;99.90;;;;;;4970650;28;20026;-59
2022/08/23 06:33:32;;;;;;;5.47;1.20;;;19.70;99.90;;;;;;4968524;28;20042;-58
2022/08/23 06:36:06;;;;;;;2.97;1.40;;;19.80;99.90;;;;;;4974019;28;20386;-58
2022/08/23 06:38:33;;;;;;;2.08;0.80;;;20.10;99.90;;;;;;4970554;28;20055;-58
2022/08/23 06:41:03;;;;;;;7.28;1.45;;;20.20;99.90;;;;;;4975477;28;20027;-59
2022/08/23 06:43:30;;;;;;;4.40;1.17;;;20.30;99.90;;;;;;4978498;28;20363;-58
2022/08/23 06:46:12;;;;;;;2.78;0.90;;;20.40;99.90;;;;;;4977805;28;20035;-59
2022/08/23 06:48:38;;;;;;;5.30;1.00;;;20.30;99.90;;;;;;4979841;28;20039;-57
2022/08/23 06:51:11;;;;;;;5.25;0.95;;;20.20;99.90;;;;;;4979188;28;20465;-58
2022/08/23 06:53:37;;;;;;;1.95;1.00;;;20.20;99.90;;;;;;4973748;28;20042;-58
2022/08/23 06:56:04;;;;;;;8.00;1.38;;;20.10;99.90;;;;;;4972834;28;20077;-58
2022/08/23 06:58:29;;;;;;;4.50;1.33;;;20.00;99.90;;;;;;4973755;28;20442;-58
2022/08/23 07:00:55;;;;;;;3.63;1.52;;;19.90;99.90;;;;;;4978952;28;20038;-59
2022/08/23 07:03:22;;;;;;;3.35;1.00;;;19.90;99.90;;;;;;4980093;28;20034;-58
2022/08/23 07:05:47;;;;;;;4.80;1.10;;;19.80;99.90;;;;;;4971629;28;20109;-58
2022/08/23 07:08:13;;;;;;;2.85;1.15;;;19.70;99.90;;;;;;4983760;28;20506;-58
2022/08/23 07:10:39;;;;;;;4.30;1.30;;;19.70;99.90;;;;;;4977170;28;20022;-59
2022/08/23 07:13:04;;;;;;;2.55;1.00;;;19.80;99.90;;;;;;4974634;28;20415;-58
2022/08/23 07:15:30;;;;;;;5.25;1.38;;;20.00;99.90;;;;;;4972675;28;20490;-58
2022/08/23 07:17:55;;;;;;;2.63;1.70;;;20.00;99.90;;;;;;4979359;28;20037;-58
2022/08/23 07:20:21;;;;;;;4.10;0.95;;;20.00;99.90;;;;;;4977313;28;20073;-57
2022/08/23 07:22:47;;;;;;;4.70;1.40;;;20.00;99.90;;;;;;4979571;28;20058;-58
2022/08/23 07:25:12;;;;;;;9.55;1.75;;;20.00;99.90;;;;;;4974665;28;20532;-58
2022/08/23 07:27:53;;;;;;;6.55;1.70;;;20.00;99.90;;;;;;4975642;28;20461;-58
2022/08/23 07:30:18;;;;;;;7.07;1.13;;;20.00;99.90;;;;;;4984986;28;20105;-59
2022/08/23 07:32:44;;;;;;;6.90;1.58;;;20.10;99.90;;;;;;4982637;28;20126;-59
2022/08/23 07:35:10;;;;;;;4.57;1.23;;;20.10;99.90;;;;;;4974270;28;20413;-60
2022/08/23 07:37:36;;;;;;;5.75;1.00;;;20.30;99.90;;;;;;4979274;28;20023;-60
2022/08/23 07:40:03;;;;;;;4.78;1.20;;;20.30;99.90;;;;;;4978994;28;20546;-60
2022/08/23 07:42:29;;;;;;;6.10;1.00;;;20.50;99.90;;;;;;4972348;28;20052;-60
2022/08/23 07:44:54;;;;;;;3.80;1.02;;;20.50;99.90;;;;;;4972038;28;20198;-59
2022/08/23 07:47:20;;;;;;;4.85;0.82;;;20.40;99.90;;;;;;4979270;28;20034;-59
2022/08/23 07:49:46;;;;;;;5.53;1.08;;;20.40;99.90;;;;;;4970260;28;20069;-59
2022/08/23 07:52:11;;;;;;;5.38;1.02;;;20.40;99.90;;;;;;4972872;28;20480;-59
2022/08/23 07:54:37;;;;;;;3.53;0.80;;;20.40;99.90;;;;;;4970875;28;20037;-59
2022/08/23 07:57:03;;;;;;;4.80;0.88;;;20.30;99.90;;;;;;4964134;28;20042;-59
2022/08/23 07:59:29;;;;;;;1.95;0.98;;;20.40;99.90;;;;;;4970834;28;20161;-59
2022/08/23 08:01:55;;;;;;;2.92;1.10;;;20.60;99.90;;;;;;4970696;28;20479;-59
2022/08/23 08:04:21;;;;;;;1.98;0.63;;;20.70;99.90;;;;;;4970877;28;20023;-59
2022/08/23 08:06:48;;;;;;;2.00;0.68;;;20.70;99.90;;;;;;4970635;28;20038;-59
2022/08/23 08:09:14;;;;;;;3.08;0.90;;;20.60;99.90;;;;;;4969700;28;20026;-58
2022/08/23 08:11:43;;;;;;;5.25;0.93;;;20.50;99.90;;;;;;4969604;28;20497;-60
2022/08/23 08:14:10;;;;;;;2.63;0.68;;;20.80;99.90;;;;;;4968922;28;20027;-59
2022/08/23 08:16:39;;;;;;;2.92;0.77;;;20.80;99.90;;;;;;4968282;28;20031;-59
2022/08/23 08:19:07;;;;;;;3.50;0.90;;;20.90;99.90;;;;;;4967876;28;20041;-60
2022/08/23 08:21:34;;;;;;;2.25;0.88;;;21.10;99.90;;;;;;4969800;28;20044;-59
2022/08/23 08:24:00;;;;;;;4.18;0.70;;;21.20;99.90;;;;;;4965210;28;20038;-59
2022/08/23 08:26:26;;;;;;;3.53;0.80;;;21.30;99.90;;;;;;4970121;28;20019;-60
2022/08/23 08:28:54;;;;;;;1.55;0.47;;;21.40;99.90;;;;;;4968438;28;20045;-60
2022/08/23 08:31:21;;;;;;;2.35;0.70;;;21.40;99.90;;;;;;4969183;28;20591;-60
2022/08/23 08:33:46;;;;;;;2.20;0.80;;;21.50;99.90;;;;;;4969359;28;20068;-60
2022/08/23 08:36:35;;;;;;;2.58;0.50;;;21.60;99.90;;;;;;4968476;28;20378;-60
2022/08/23 08:39:11;;;;;;;2.63;0.60;;;21.70;99.90;;;;;;4968720;28;20130;-60
2022/08/23 08:42:07;;;;;;;4.28;0.90;;;21.80;99.90;;;;;;4967819;28;20177;-59
2022/08/23 08:44:54;;;;;;;2.78;0.50;;;21.90;99.90;;;;;;4969460;28;20113;-60
2022/08/23 08:47:44;;;;;;;2.20;0.70;;;22.00;99.90;;;;;;4970253;28;20046;-60
2022/08/23 08:50:36;;;;;;;3.22;0.70;;;22.00;99.90;;;;;;4966341;28;20475;-59
2022/08/23 08:53:12;;;;;;;4.10;0.75;;;22.20;99.90;;;;;;4971548;28;20030;-59
2022/08/23 08:55:48;;;;;;;3.33;0.60;;;22.50;99.90;;;;;;4965394;28;20113;-59
2022/08/23 08:58:39;;;;;;;3.40;0.70;;;22.40;99.90;;;;;;4971087;28;20041;-60
2022/08/23 09:01:05;;;;;;;1.45;0.60;;;22.50;99.90;;;;;;4966663;28;20054;-60
2022/08/23 09:03:34;;;;;;;2.63;1.00;;;22.40;99.90;;;;;;4969553;28;20031;-60
2022/08/23 09:06:18;;;;;;;2.03;0.75;;;22.40;99.90;;;;;;4968330;28;20089;-59
2022/08/23 09:09:07;;;;;;;3.60;0.50;;;22.10;99.90;;;;;;4968713;28;20541;-60
2022/08/23 09:11:52;;;;;;;3.63;0.90;;;22.10;99.90;;;;;;4957905;28;20034;-59
2022/08/23 09:14:38;;;;;;;0.75;0.60;;;22.20;99.90;;;;;;4963644;28;20039;-61
2022/08/23 09:17:27;;;;;;;2.13;0.85;;;22.10;99.90;;;;;;4968218;28;20042;-60
2022/08/23 09:19:57;;;;;;;5.07;1.00;;;22.10;99.90;;;;;;4928378;28;20050;-59
2022/08/23 09:22:52;;;;;;;2.15;0.80;;;22.30;99.90;;;;;;4969859;28;20042;-60
2022/08/23 09:25:19;;;;;;;1.27;0.73;;;22.50;99.90;;;;;;4960797;28;20046;-59
2022/08/23 09:27:45;;;;;;;0.60;0.50;;;22.50;99.90;;;;;;4969506;28;20618;-60
2022/08/23 09:30:13;;;;;;;2.22;0.52;;;22.50;99.90;;;;;;4969739;28;20051;-60
2022/08/23 09:32:42;;;;;;;2.50;0.93;;;22.10;99.90;;;;;;4973255;28;20026;-60
2022/08/23 09:35:15;;;;;;;2.85;0.73;;;22.00;99.90;;;;;;4971645;28;20459;-59
2022/08/23 09:37:56;;;;;;;2.05;0.80;;;21.90;99.90;;;;;;4975175;28;20057;-59
2022/08/23 09:40:34;;;;;;;3.95;0.60;;;21.80;99.90;;;;;;4970266;28;20058;-59
2022/08/23 09:43:23;;;;;;;3.45;0.93;;;21.80;99.90;;;;;;4963654;28;20034;-59
2022/08/23 09:45:49;;;;;;;2.72;0.70;;;21.90;99.90;;;;;;4971160;28;20038;-60
2022/08/23 09:48:44;;;;;;;4.85;0.80;;;21.90;99.90;;;;;;4975883;28;20530;-59
2022/08/23 09:51:23;;;;;;;3.83;1.10;;;22.20;99.90;;;;;;4968685;28;20035;-59
2022/08/23 09:54:12;;;;;;;1.15;0.57;;;22.40;99.90;;;;;;4968957;28;20031;-59
2022/08/23 09:56:43;;;;;;;2.58;0.63;;;22.50;99.90;;;;;;4964712;28;20034;-59
2022/08/23 09:59:24;;;;;;;4.32;1.00;;;22.80;99.90;;;;;;4969634;28;20470;-59
2022/08/23 10:01:52;;;;;;;4.80;0.80;;;22.90;99.90;;;;;;4974330;28;20027;-59
2022/08/23 10:04:32;;;;;;;2.20;0.75;;;22.70;99.90;;;;;;4980108;28;20058;-59
2022/08/23 10:06:57;;;;;;;4.25;1.00;;;22.80;99.90;;;;;;4969424;28;20332;-58
2022/08/23 10:09:29;;;;;;;1.15;0.63;;;23.00;99.90;;;;;;4972077;28;20490;-59
2022/08/23 10:11:57;;;;;;;1.02;0.60;;;22.90;99.90;;;;;;4967381;28;20034;-58
2022/08/23 10:14:24;;;;;;;2.03;0.70;;;23.00;99.90;;;;;;4972688;28;20051;-59
2022/08/23 10:16:52;;;;;;;1.60;0.50;;;23.20;99.90;;;;;;4970050;28;20383;-59
2022/08/23 10:20:10;;;;;;;2.17;0.60;;;23.20;99.90;;;;;;4972291;28;20023;-59
2022/08/23 10:22:45;;;;;;;0.88;0.55;;;23.20;99.90;;;;;;4936643;28;20491;-59
2022/08/23 10:25:20;;;;;;;0.73;0.50;;;23.10;99.90;;;;;;4948421;28;20039;-59
2022/08/23 10:30:58;;;;;;;1.60;0.52;;;23.10;99.90;;;;;;4940672;28;20046;-59
2022/08/23 10:33:39;;;;;;;0.80;0.55;;;23.00;99.90;;;;;;4950550;28;20544;-59
2022/08/23 10:36:15;;;;;;;1.05;0.38;;;23.20;99.90;;;;;;4944983;28;20511;-59
2022/08/23 10:38:57;;;;;;;1.63;0.57;;;23.30;99.90;;;;;;4951670;28;20055;-59
2022/08/23 10:41:43;;;;;;;1.73;0.50;;;23.50;99.90;;;;;;4952357;28;20027;-59
2022/08/23 10:45:10;;;;;;;3.53;0.80;;;23.60;99.90;;;;;;4959267;28;20121;-60
2022/08/23 10:48:03;;;;;;;2.33;0.95;;;24.10;99.90;;;;;;4927600;29;20083;-59
2022/08/23 10:50:44;;;;;;;0.65;0.32;;;24.40;99.90;;;;;;4942588;28;20620;-59
2022/08/23 10:53:16;;;;;;;1.70;0.43;;;24.20;99.90;;;;;;4944214;28;20585;-59
2022/08/23 10:56:05;;;;;;;3.25;0.63;;;24.10;99.90;;;;;;4948702;28;20046;-59
2022/08/23 10:58:48;;;;;;;0.63;0.30;;;24.00;99.90;;;;;;4970007;28;20394;-59
2022/08/23 11:01:21;;;;;;;2.45;0.60;;;23.80;99.90;;;;;;4962573;28;20030;-58
2022/08/23 11:04:05;;;;;;;0.20;0.20;;;24.00;99.90;;;;;;4970547;28;20387;-59
2022/08/23 11:06:34;;;;;;;2.75;0.88;;;23.80;99.90;;;;;;4969821;28;20052;-59
2022/08/23 11:09:02;;;;;;;0.95;0.50;;;24.10;99.90;;;;;;4969776;28;20453;-59
2022/08/23 11:11:48;;;;;;;4.72;1.17;;;24.70;99.90;;;;;;4971499;28;20035;-59
2022/08/23 11:14:37;;;;;;;1.05;0.60;;;24.80;99.90;;;;;;4970148;28;20026;-59
2022/08/23 11:17:10;;;;;;;0.20;0.20;;;24.60;99.90;;;;;;4967058;28;20043;-60
2022/08/23 11:19:55;;;;;;;0.30;0.20;;;24.50;99.90;;;;;;4970729;28;20394;-59
2022/08/23 11:22:51;;;;;;;0.70;0.30;;;24.60;99.90;;;;;;4965434;28;20026;-60
2022/08/23 11:25:16;;;;;;;0.47;0.25;;;24.70;99.90;;;;;;4964081;28;20039;-59
2022/08/23 11:27:43;;;;;;;0.70;0.40;;;24.80;99.90;;;;;;4970982;28;20041;-60
2022/08/23 11:30:33;;;;;;;2.20;0.40;;;24.80;99.90;;;;;;4969137;28;20142;-59
2022/08/23 11:33:22;;;;;;;2.60;0.40;;;25.10;99.90;;;;;;4969291;28;20055;-59
2022/08/23 11:36:10;;;;;;;1.05;0.40;;;24.90;99.90;;;;;;4964143;28;20394;-59
2022/08/23 11:38:48;;;;;;;0.73;0.30;;;25.00;99.90;;;;;;4966196;28;20274;-60
2022/08/23 11:41:21;;;;;;;2.25;0.40;;;24.70;99.90;;;;;;4968500;28;20027;-58
2022/08/23 11:44:12;;;;;;;1.75;0.40;;;24.40;99.90;;;;;;4971239;28;20027;-60
2022/08/23 11:46:54;;;;;;;0.55;0.20;;;23.70;99.90;;;;;;4957559;28;20169;-59
2022/08/23 11:49:29;;;;;;;0.85;0.77;;;23.40;99.90;;;;;;4970235;28;20467;-59
2022/08/23 11:52:14;;;;;;;0.70;0.38;;;23.70;99.90;;;;;;4968522;28;20026;-59
2022/08/23 11:55:05;;;;;;;2.67;0.30;;;23.60;99.90;;;;;;4971356;28;20035;-60
2022/08/23 11:58:02;;;;;;;2.05;0.47;;;23.50;99.90;;;;;;4957905;28;20026;-59
2022/08/23 12:00:47;;;;;;;0.45;0.20;;;23.60;99.90;;;;;;4969975;28;20039;-59
2022/08/23 12:03:47;;;;;;;1.00;0.38;;;23.60;99.90;;;;;;4969398;28;20031;-60
2022/08/23 12:06:54;;;;;;;1.58;0.30;;;23.80;99.90;;;;;;4962433;28;20047;-59
2022/08/23 12:09:22;;;;;;;1.15;0.47;;;23.60;99.90;;;;;;4981074;28;20474;-58
2022/08/23 12:11:54;;;;;;;0.68;0.55;;;23.70;99.90;;;;;;4970526;28;20023;-59
2022/08/23 12:14:35;;;;;;;2.75;0.75;;;23.60;99.90;;;;;;4967475;28;20023;-59
2022/08/23 12:17:24;;;;;;;0.80;0.67;;;23.30;99.90;;;;;;4966751;28;20027;-59
2022/08/23 12:20:06;;;;;;;1.10;0.85;;;23.10;99.90;;;;;;4965459;28;20030;-59
2022/08/23 12:23:01;;;;;;;1.50;1.00;;;23.00;99.90;;;;;;4970701;28;20035;-59
2022/08/23 12:25:30;;;;;;;0.57;0.57;;;22.70;99.90;;;;;;4970688;28;20030;-59
2022/08/23 12:28:06;;;;;;;1.90;0.55;;;22.80;99.90;;;;;;4968334;28;20042;-60
2022/08/23 12:30:45;;;;;;;0.28;0.28;;;22.90;99.90;;;;;;4969513;28;20038;-59
2022/08/23 12:33:32;;;;;;;0.65;0.30;;;23.00;99.90;;;;;;4967981;28;20046;-60
2022/08/23 12:36:29;;;;;;;1.25;0.30;;;23.20;99.90;;;;;;4962571;28;20109;-60
2022/08/23 12:39:06;;;;;;;2.13;0.35;;;23.30;99.90;;;;;;4965221;28;20399;-60
2022/08/23 12:41:52;;;;;;;0.60;0.40;;;23.30;99.90;;;;;;4970196;28;20031;-60
2022/08/23 12:44:24;;;;;;;2.08;1.02;;;23.50;99.90;;;;;;4962864;28;20027;-60
2022/08/23 12:46:51;;;;;;;0.57;0.30;;;23.60;99.90;;;;;;4970513;28;20018;-58
2022/08/23 12:49:25;;;;;;;0.30;0.25;;;23.60;99.90;;;;;;4968553;28;20078;-59
2022/08/23 12:51:55;;;;;;;1.75;0.40;;;23.20;99.90;;;;;;4968549;28;20574;-59
2022/08/23 12:54:31;;;;;;;0.50;0.32;;;23.20;99.90;;;;;;4970462;28;20042;-58
2022/08/23 12:56:58;;;;;;;0.68;0.50;;;22.90;99.90;;;;;;4964247;28;20038;-59
2022/08/23 12:59:36;;;;;;;0.90;0.43;;;23.00;99.90;;;;;;4969353;28;20027;-60
2022/08/23 13:02:05;;;;;;;0.85;0.75;;;23.00;99.90;;;;;;4968693;28;20123;-59
2022/08/23 13:04:32;;;;;;;0.40;0.40;;;23.10;99.90;;;;;;4974559;28;20431;-59
2022/08/23 13:07:02;;;;;;;0.45;0.45;;;23.20;99.90;;;;;;4972317;28;20058;-59
2022/08/23 13:09:32;;;;;;;0.65;0.50;;;23.30;99.90;;;;;;4974087;28;20090;-59
2022/08/23 13:11:58;;;;;;;1.52;0.88;;;23.20;99.90;;;;;;4970818;28;20486;-60
2022/08/23 13:14:45;;;;;;;1.60;1.02;;;23.50;99.90;;;;;;4974002;28;20031;-59
2022/08/23 13:17:12;;;;;;;1.17;0.90;;;23.40;99.90;;;;;;4972448;28;20030;-59
2022/08/23 13:19:38;;;;;;;1.48;1.20;;;23.40;99.90;;;;;;4974122;28;20081;-60
2022/08/23 13:22:21;;;;;;;2.60;1.45;;;23.60;99.90;;;;;;4972166;28;20030;-59